Time;durP1;ratioP1;P1;durP2;ratioP2;P2;SDS_P1;SDS_P2;PMS_P1;PMS_P2;Temp;Humidity;BMP_temperature;BMP_pressure;BME280_temperature;BME280_humidity;BME280_pressure;Samples;Min_cycle;Max_cycle;Signal;HPM_P1;HPM_P2
2022/05/09 00:00:13;;;;;;;2.83;1.27;;;15.30;66.40;;;;;;5013185;28;20208;-79
2022/05/09 00:02:40;;;;;;;3.97;1.38;;;15.30;66.90;;;;;;5031433;28;20599;-79
2022/05/09 00:05:07;;;;;;;5.72;1.80;;;15.20;67.10;;;;;;5030703;28;20166;-79
2022/05/09 00:07:33;;;;;;;3.75;2.08;;;15.20;67.20;;;;;;5031156;28;20169;-79
2022/05/09 00:10:00;;;;;;;4.70;1.67;;;15.20;67.50;;;;;;5031096;28;20776;-79
2022/05/09 00:12:27;;;;;;;4.50;1.55;;;15.20;67.90;;;;;;5029878;28;20612;-79
2022/05/09 00:14:53;;;;;;;4.43;1.80;;;15.10;69.30;;;;;;5030697;28;20535;-79
2022/05/09 00:17:19;;;;;;;4.25;1.65;;;15.10;68.90;;;;;;5031115;28;20169;-79
2022/05/09 00:19:44;;;;;;;5.37;2.23;;;15.10;69.20;;;;;;5030886;28;20224;-80
2022/05/09 00:22:10;;;;;;;3.00;1.50;;;15.00;69.60;;;;;;5029501;28;20251;-80
2022/05/09 00:24:36;;;;;;;4.10;1.60;;;15.00;70.30;;;;;;5030647;28;20637;-80
2022/05/09 00:27:02;;;;;;;4.87;1.90;;;15.00;71.40;;;;;;5031044;28;20235;-80
2022/05/09 00:29:28;;;;;;;6.13;1.65;;;15.00;71.00;;;;;;5031106;28;20170;-80
2022/05/09 00:31:57;;;;;;;4.10;1.70;;;14.90;71.40;;;;;;5030494;28;20202;-79
2022/05/09 00:34:25;;;;;;;3.33;2.20;;;14.90;71.70;;;;;;5029393;28;20510;-79
2022/05/09 00:36:55;;;;;;;4.50;1.40;;;14.90;71.90;;;;;;5030873;28;20260;-79
2022/05/09 00:39:21;;;;;;;2.38;1.30;;;14.90;72.50;;;;;;5030930;28;20166;-79
2022/05/09 00:41:47;;;;;;;4.43;1.63;;;14.90;72.70;;;;;;5030309;28;20212;-80
2022/05/09 00:44:21;;;;;;;2.58;1.40;;;14.80;73.00;;;;;;5030513;28;20220;-79
2022/05/09 00:46:49;;;;;;;4.10;1.70;;;14.80;73.70;;;;;;5032655;28;20170;-79
2022/05/09 00:49:29;;;;;;;3.33;1.70;;;14.80;73.80;;;;;;5034331;28;20169;-79
2022/05/09 00:52:11;;;;;;;2.67;1.40;;;14.80;74.70;;;;;;5016345;28;20194;-79
2022/05/09 00:54:43;;;;;;;4.93;1.50;;;14.80;75.00;;;;;;5032699;28;20653;-79
2022/05/09 00:57:18;;;;;;;4.07;1.52;;;14.80;74.70;;;;;;5034433;28;20197;-79
2022/05/09 00:59:44;;;;;;;3.22;1.45;;;14.70;75.00;;;;;;5034007;28;20184;-79
2022/05/09 01:02:14;;;;;;;3.33;1.50;;;14.70;75.00;;;;;;5034230;28;20263;-79
2022/05/09 01:04:47;;;;;;;4.03;1.80;;;14.70;75.40;;;;;;5033730;28;20177;-79
2022/05/09 01:07:13;;;;;;;3.72;1.80;;;14.70;76.00;;;;;;5032917;28;20170;-79
2022/05/09 01:09:38;;;;;;;4.60;1.63;;;14.70;75.90;;;;;;5016286;28;20166;-79
2022/05/09 01:12:05;;;;;;;4.73;1.33;;;14.60;76.00;;;;;;5034047;28;20193;-80
2022/05/09 01:14:32;;;;;;;3.33;1.38;;;14.60;76.40;;;;;;5032471;28;20201;-80
2022/05/09 01:17:01;;;;;;;2.25;1.50;;;14.60;76.50;;;;;;5032867;28;20215;-80
2022/05/09 01:19:41;;;;;;;2.88;1.30;;;14.60;76.70;;;;;;5033715;28;20174;-79
2022/05/09 01:22:31;;;;;;;4.78;2.15;;;14.60;77.40;;;;;;5034040;28;20255;-78
2022/05/09 01:25:02;;;;;;;3.45;1.40;;;14.50;77.80;;;;;;5033316;28;20180;-78
2022/05/09 01:27:29;;;;;;;3.88;1.40;;;14.50;77.30;;;;;;5032567;28;20260;-77
2022/05/09 01:30:08;;;;;;;2.30;1.27;;;14.50;77.40;;;;;;5033311;28;20162;-78
2022/05/09 01:32:49;;;;;;;5.03;1.90;;;14.50;78.30;;;;;;5033598;28;20201;-78
2022/05/09 01:35:27;;;;;;;2.95;1.27;;;14.50;78.40;;;;;;5033196;28;20189;-78
2022/05/09 01:38:02;;;;;;;1.90;1.10;;;14.40;78.40;;;;;;5033724;28;20165;-78
2022/05/09 01:40:28;;;;;;;3.33;1.05;;;14.40;78.30;;;;;;5033152;28;20295;-78
2022/05/09 01:42:53;;;;;;;4.00;1.70;;;14.40;78.20;;;;;;5033364;28;20253;-78
2022/05/09 01:45:20;;;;;;;5.90;1.70;;;14.40;78.40;;;;;;5031827;28;20174;-78
2022/05/09 01:50:33;;;;;;;2.40;1.10;;;14.40;79.00;;;;;;5031829;28;20590;-78
2022/05/09 01:52:58;;;;;;;7.25;1.80;;;14.40;79.20;;;;;;5015124;28;20201;-79
2022/05/09 01:55:25;;;;;;;6.90;1.80;;;14.30;79.20;;;;;;5033245;28;20587;-78
2022/05/09 01:57:51;;;;;;;3.40;1.70;;;14.30;79.40;;;;;;5032408;28;20257;-78
2022/05/09 02:00:20;;;;;;;4.67;1.77;;;14.30;79.70;;;;;;5031540;28;20206;-78
2022/05/09 02:02:46;;;;;;;3.60;1.23;;;14.30;79.90;;;;;;5033074;28;20165;-78
2022/05/09 02:05:12;;;;;;;3.43;1.10;;;14.30;80.10;;;;;;5032711;28;20181;-79
2022/05/09 02:07:38;;;;;;;2.33;1.10;;;14.20;80.50;;;;;;5031826;28;20574;-78
2022/05/09 02:10:05;;;;;;;3.58;1.45;;;14.20;80.80;;;;;;5032777;28;20170;-78
2022/05/09 02:12:30;;;;;;;2.80;1.50;;;14.20;81.00;;;;;;5032792;28;20190;-78
2022/05/09 02:14:59;;;;;;;4.63;1.35;;;14.20;81.30;;;;;;5032429;28;20575;-78
2022/05/09 02:17:24;;;;;;;2.27;1.40;;;14.20;81.50;;;;;;5032696;28;20262;-78
2022/05/09 02:19:50;;;;;;;5.10;1.87;;;14.20;81.80;;;;;;5032359;28;20225;-78
2022/05/09 02:22:16;;;;;;;3.37;1.27;;;14.20;82.00;;;;;;5031599;28;20649;-78
2022/05/09 02:24:42;;;;;;;5.13;1.42;;;14.20;82.30;;;;;;5032197;28;20189;-78
2022/05/09 02:27:09;;;;;;;3.13;1.20;;;14.20;82.50;;;;;;5015056;28;20207;-77
2022/05/09 02:29:39;;;;;;;3.47;1.25;;;14.20;82.90;;;;;;5032282;28;20634;-78
2022/05/09 02:32:06;;;;;;;2.65;1.75;;;14.20;83.10;;;;;;5032129;28;20676;-77
2022/05/09 02:34:32;;;;;;;3.70;1.50;;;14.10;83.20;;;;;;5032030;28;20177;-77
2022/05/09 02:36:59;;;;;;;2.60;1.10;;;14.10;83.40;;;;;;5031470;28;20630;-77
2022/05/09 02:39:24;;;;;;;2.03;1.15;;;14.10;83.50;;;;;;5032325;28;20196;-78
2022/05/09 02:41:50;;;;;;;5.87;2.00;;;14.10;83.50;;;;;;5031967;28;20197;-78
2022/05/09 02:44:16;;;;;;;8.07;2.10;;;14.00;83.70;;;;;;5031929;28;20292;-78
2022/05/09 02:46:44;;;;;;;6.60;1.57;;;14.00;84.00;;;;;;5032258;28;20170;-78
2022/05/09 02:49:11;;;;;;;4.65;1.73;;;14.00;84.30;;;;;;5032253;28;20208;-77
2022/05/09 02:51:37;;;;;;;3.10;1.27;;;14.00;84.70;;;;;;5032044;28;20653;-78
2022/05/09 02:54:03;;;;;;;2.40;1.30;;;14.00;85.00;;;;;;5031893;28;20190;-78
2022/05/09 02:56:29;;;;;;;3.80;1.40;;;14.00;84.70;;;;;;5030870;28;20523;-78
2022/05/09 02:58:54;;;;;;;2.60;1.27;;;13.90;85.30;;;;;;5030803;28;20572;-78
2022/05/09 03:01:20;;;;;;;2.20;1.50;;;13.90;85.50;;;;;;5031478;28;20201;-78
2022/05/09 03:06:32;;;;;;;3.28;1.38;;;13.90;86.10;;;;;;5032059;28;20192;-78
2022/05/09 03:08:58;;;;;;;3.23;1.40;;;13.90;86.10;;;;;;5030657;28;20158;-78
2022/05/09 03:11:24;;;;;;;4.33;1.50;;;13.90;86.70;;;;;;5031280;28;20190;-78
2022/05/09 03:13:50;;;;;;;2.87;1.60;;;13.80;86.90;;;;;;5031448;28;20169;-78
2022/05/09 03:16:16;;;;;;;4.17;1.57;;;13.80;87.30;;;;;;5031662;28;20168;-78
2022/05/09 03:18:41;;;;;;;2.40;1.10;;;13.80;87.50;;;;;;5030776;28;20572;-78
2022/05/09 03:21:07;;;;;;;3.00;1.77;;;13.80;87.70;;;;;;5031279;28;20635;-78
2022/05/09 03:23:33;;;;;;;4.33;1.50;;;13.80;87.90;;;;;;5031194;28;20170;-79
2022/05/09 03:26:00;;;;;;;3.72;1.60;;;13.70;88.00;;;;;;5030818;28;20604;-78
2022/05/09 03:28:28;;;;;;;3.17;1.70;;;13.70;88.40;;;;;;5031759;28;20233;-79
2022/05/09 03:30:56;;;;;;;2.00;1.43;;;13.70;88.50;;;;;;5030705;28;20285;-79
2022/05/09 03:33:24;;;;;;;2.90;1.20;;;13.70;89.10;;;;;;5013467;28;20675;-78
2022/05/09 03:35:52;;;;;;;3.75;1.45;;;13.70;89.30;;;;;;5030707;28;20634;-78
2022/05/09 03:38:18;;;;;;;2.33;1.35;;;13.70;89.60;;;;;;5030765;28;20177;-78
2022/05/09 03:40:44;;;;;;;4.28;1.48;;;13.70;90.00;;;;;;5032658;28;20681;-78
2022/05/09 03:43:11;;;;;;;5.57;1.90;;;13.60;90.00;;;;;;5032154;28;20184;-78
2022/05/09 03:45:40;;;;;;;4.07;1.85;;;13.60;90.10;;;;;;5030537;28;20611;-78
2022/05/09 03:48:05;;;;;;;3.03;1.40;;;13.60;90.40;;;;;;5030410;28;20211;-78
2022/05/09 03:50:32;;;;;;;3.60;1.40;;;13.60;90.50;;;;;;5029872;28;20255;-78
2022/05/09 03:52:58;;;;;;;5.40;2.10;;;13.60;90.70;;;;;;5029778;28;20571;-79
2022/05/09 03:55:24;;;;;;;6.40;2.17;;;13.60;90.80;;;;;;5030331;28;20177;-78
2022/05/09 03:57:53;;;;;;;4.63;1.95;;;13.60;90.90;;;;;;5031385;28;20494;-79
2022/05/09 04:00:21;;;;;;;2.58;1.30;;;13.60;91.10;;;;;;5029912;28;20205;-79
2022/05/09 04:02:47;;;;;;;2.90;1.60;;;13.60;91.20;;;;;;5031422;28;20253;-78
2022/05/09 04:05:17;;;;;;;4.00;1.70;;;13.60;91.50;;;;;;5030924;28;20291;-78
2022/05/09 04:07:48;;;;;;;4.05;1.63;;;13.60;91.30;;;;;;5030340;28;20272;-79
2022/05/09 04:10:17;;;;;;;3.53;1.42;;;13.60;91.70;;;;;;5031082;28;20242;-79
2022/05/09 04:12:42;;;;;;;3.83;2.63;;;13.60;91.60;;;;;;5031357;28;20189;-79
2022/05/09 04:17:54;;;;;;;6.15;1.83;;;13.50;91.70;;;;;;5030156;28;20173;-79
2022/05/09 04:20:21;;;;;;;6.10;1.98;;;13.50;91.90;;;;;;5030846;28;20284;-79
2022/05/09 04:22:47;;;;;;;4.28;1.65;;;13.60;92.20;;;;;;5033486;28;20625;-79
2022/05/09 04:25:19;;;;;;;4.07;2.15;;;13.60;92.40;;;;;;5034615;28;20177;-78
2022/05/09 04:27:45;;;;;;;4.97;1.75;;;13.60;92.70;;;;;;5034903;28;20173;-79
2022/05/09 04:30:11;;;;;;;4.10;1.80;;;13.70;92.90;;;;;;5036097;28;20169;-78
2022/05/09 04:32:38;;;;;;;4.60;2.05;;;13.70;92.90;;;;;;5050405;22;20674;-75
2022/05/09 04:35:04;;;;;;;6.65;2.13;;;13.70;93.00;;;;;;5033109;28;20177;-75
2022/05/09 04:37:30;;;;;;;3.75;1.83;;;13.70;93.20;;;;;;5033425;28;20178;-75
2022/05/09 04:39:56;;;;;;;3.77;1.77;;;13.80;93.50;;;;;;5033091;28;20161;-75
2022/05/09 04:42:22;;;;;;;6.40;2.05;;;13.90;93.70;;;;;;5034385;28;20193;-75
2022/05/09 04:44:48;;;;;;;3.83;1.93;;;13.90;93.90;;;;;;5032902;28;20227;-74
2022/05/09 04:47:13;;;;;;;3.57;2.00;;;13.90;94.00;;;;;;5033175;28;20188;-74
2022/05/09 04:49:39;;;;;;;3.87;1.77;;;14.00;94.30;;;;;;5016538;28;20184;-74
2022/05/09 04:52:06;;;;;;;2.93;2.10;;;14.10;94.60;;;;;;5034420;28;20221;-74
2022/05/09 04:54:32;;;;;;;2.40;1.85;;;14.10;94.80;;;;;;5032686;28;20591;-73
2022/05/09 04:56:58;;;;;;;4.10;2.22;;;14.20;94.90;;;;;;5032941;28;20257;-74
2022/05/09 04:59:24;;;;;;;6.30;3.00;;;14.30;95.10;;;;;;5034328;28;20882;-74
2022/05/09 05:01:50;;;;;;;6.63;3.47;;;14.30;95.30;;;;;;5033846;28;20205;-76
2022/05/09 05:04:17;;;;;;;4.73;3.10;;;14.40;95.40;;;;;;5032553;28;20169;-75
2022/05/09 05:06:44;;;;;;;3.30;2.40;;;14.50;95.50;;;;;;5032969;28;20268;-75
2022/05/09 05:09:10;;;;;;;3.85;2.95;;;14.50;95.50;;;;;;5034234;28;20162;-74
2022/05/09 05:11:40;;;;;;;4.40;2.20;;;14.60;95.40;;;;;;5033669;28;20239;-74
2022/05/09 05:14:05;;;;;;;4.05;1.85;;;14.60;95.40;;;;;;5034307;28;20166;-74
2022/05/09 05:19:17;;;;;;;6.65;2.10;;;14.70;95.70;;;;;;5036414;28;20177;-74
2022/05/09 05:21:43;;;;;;;6.97;2.70;;;14.80;95.60;;;;;;5015694;28;20212;-75
2022/05/09 05:24:09;;;;;;;4.10;2.22;;;14.80;95.70;;;;;;5015843;28;20281;-75
2022/05/09 05:26:35;;;;;;;3.95;2.10;;;14.90;95.80;;;;;;5033770;28;20162;-77
2022/05/09 05:29:00;;;;;;;3.50;1.93;;;14.90;95.90;;;;;;5032566;28;20177;-77
2022/05/09 05:31:28;;;;;;;2.93;2.27;;;15.00;95.90;;;;;;5033121;28;20251;-75
2022/05/09 05:33:53;;;;;;;3.17;1.80;;;15.10;95.90;;;;;;5030927;28;20565;-74
2022/05/09 05:36:20;;;;;;;5.93;2.47;;;15.10;96.20;;;;;;5016473;28;20748;-75
2022/05/09 05:38:51;;;;;;;2.45;1.90;;;15.20;96.50;;;;;;5032333;28;20608;-74
2022/05/09 05:41:20;;;;;;;3.70;2.53;;;15.30;96.40;;;;;;5031480;28;20208;-74
2022/05/09 05:43:46;;;;;;;7.10;1.70;;;15.50;96.80;;;;;;5032403;28;20184;-73
2022/05/09 05:46:13;;;;;;;5.07;1.75;;;15.90;97.10;;;;;;5031831;28;20607;-75
2022/05/09 05:48:40;;;;;;;5.30;1.90;;;16.30;97.40;;;;;;5033282;28;20169;-75
2022/05/09 05:51:06;;;;;;;2.70;1.70;;;16.80;97.90;;;;;;5032622;28;20623;-76
2022/05/09 05:53:34;;;;;;;3.37;1.30;;;17.60;98.40;;;;;;5031390;28;20632;-75
2022/05/09 05:56:00;;;;;;;3.53;1.40;;;18.50;98.60;;;;;;5015378;28;20569;-74
2022/05/09 05:58:28;;;;;;;5.43;1.53;;;19.50;98.40;;;;;;5033100;28;20582;-75
2022/05/09 06:00:55;;;;;;;2.23;1.30;;;20.40;97.70;;;;;;5027538;28;21059;-75
2022/05/09 06:03:21;;;;;;;3.40;1.73;;;21.20;96.90;;;;;;5046443;28;20613;-74
2022/05/09 06:05:47;;;;;;;3.90;1.30;;;22.00;95.90;;;;;;5032907;28;20608;-75
2022/05/09 06:08:13;;;;;;;4.70;1.40;;;22.70;94.80;;;;;;5032724;28;21140;-74
2022/05/09 06:10:39;;;;;;;4.40;1.57;;;23.50;92.80;;;;;;5029885;28;20596;-74
2022/05/09 06:13:06;;;;;;;4.90;1.40;;;24.10;90.60;;;;;;5029455;28;20612;-73
2022/05/09 06:15:34;;;;;;;2.63;1.00;;;24.50;86.60;;;;;;5031403;28;20591;-75
2022/05/09 06:18:12;;;;;;;2.67;1.37;;;24.80;86.30;;;;;;5031245;28;20607;-75
2022/05/09 06:20:41;;;;;;;3.97;1.23;;;25.10;83.10;;;;;;5031994;28;20648;-75
2022/05/09 06:23:08;;;;;;;2.53;1.23;;;25.40;78.00;;;;;;5030181;28;20616;-75
2022/05/09 06:25:35;;;;;;;4.07;1.20;;;25.60;77.40;;;;;;5032496;28;20568;-75
2022/05/09 06:28:01;;;;;;;2.43;1.10;;;25.70;74.60;;;;;;5032608;28;20937;-73
2022/05/09 06:30:28;;;;;;;2.70;1.43;;;25.90;74.30;;;;;;5032114;28;20572;-74
2022/05/09 06:32:55;;;;;;;2.00;1.20;;;25.90;72.10;;;;;;5031712;28;20609;-74
2022/05/09 06:35:24;;;;;;;2.53;1.23;;;26.10;70.70;;;;;;5032374;28;20576;-76
2022/05/09 06:38:03;;;;;;;2.50;1.40;;;26.10;66.40;;;;;;5013988;28;20577;-74
2022/05/09 06:40:35;;;;;;;2.60;1.27;;;26.10;66.00;;;;;;5031977;28;20982;-74
2022/05/09 06:43:03;;;;;;;2.43;1.00;;;26.40;68.60;;;;;;5030160;28;20651;-74
2022/05/09 06:45:33;;;;;;;5.20;1.70;;;26.70;65.70;;;;;;5023021;28;20696;-74
2022/05/09 06:48:00;;;;;;;2.70;1.47;;;26.80;65.90;;;;;;5030919;28;20586;-74
2022/05/09 06:50:30;;;;;;;3.40;1.10;;;27.00;64.80;;;;;;5030776;28;20568;-73
2022/05/09 06:52:58;;;;;;;2.93;1.07;;;27.20;63.60;;;;;;5013990;28;20640;-74
2022/05/09 06:55:24;;;;;;;3.43;1.20;;;27.70;65.50;;;;;;5032162;28;20598;-73
2022/05/09 06:57:49;;;;;;;4.77;1.10;;;28.30;65.40;;;;;;5031988;28;21000;-74
2022/05/09 07:00:20;;;;;;;2.10;1.10;;;28.90;65.00;;;;;;5031790;28;20193;-74
2022/05/09 07:02:45;;;;;;;3.23;1.00;;;29.50;62.90;;;;;;5030896;28;20292;-73
2022/05/09 07:05:15;;;;;;;3.20;1.30;;;30.00;60.40;;;;;;5031823;28;20660;-74
2022/05/09 07:07:42;;;;;;;4.27;1.50;;;30.40;58.30;;;;;;5030848;28;20527;-74
2022/05/09 07:10:08;;;;;;;3.33;1.30;;;30.60;56.90;;;;;;5030172;28;20687;-74
2022/05/09 07:12:52;;;;;;;4.10;1.40;;;30.60;56.00;;;;;;5031766;28;20732;-74
2022/05/09 07:15:25;;;;;;;3.63;1.00;;;30.80;55.30;;;;;;5013183;28;20597;-74
2022/05/09 07:17:52;;;;;;;4.77;1.53;;;30.70;53.60;;;;;;5030457;28;20595;-74
2022/05/09 07:20:20;;;;;;;2.90;1.30;;;30.70;53.40;;;;;;5031488;28;20611;-74
2022/05/09 07:22:47;;;;;;;5.10;1.20;;;30.70;53.30;;;;;;5031227;28;20586;-74
2022/05/09 07:25:15;;;;;;;3.30;1.00;;;31.00;53.00;;;;;;5029532;28;20572;-74
2022/05/09 07:27:42;;;;;;;2.77;1.20;;;31.30;52.80;;;;;;5031601;28;20608;-74
2022/05/09 07:30:12;;;;;;;2.97;0.90;;;31.50;52.40;;;;;;5013924;28;20591;-74
2022/05/09 07:32:38;;;;;;;6.23;1.40;;;31.50;51.60;;;;;;5031657;28;20608;-75
2022/05/09 07:35:06;;;;;;;2.33;1.10;;;31.30;50.80;;;;;;5013331;28;20602;-75
2022/05/09 07:37:35;;;;;;;4.60;1.33;;;31.30;50.40;;;;;;5031274;28;20585;-74
2022/05/09 07:40:00;;;;;;;3.13;1.30;;;31.10;50.20;;;;;;5031323;28;20588;-74
2022/05/09 07:42:27;;;;;;;3.00;1.30;;;31.20;50.10;;;;;;5031376;28;20722;-75
2022/05/09 07:44:56;;;;;;;3.37;1.80;;;31.40;49.70;;;;;;5030184;28;20209;-74
2022/05/09 07:47:23;;;;;;;2.70;1.10;;;31.60;49.50;;;;;;5031575;28;20961;-75
2022/05/09 07:49:50;;;;;;;5.80;1.20;;;31.80;49.60;;;;;;5029730;28;20586;-74
2022/05/09 07:52:16;;;;;;;3.43;1.10;;;32.00;49.30;;;;;;5029449;28;20614;-75
2022/05/09 07:54:43;;;;;;;2.63;1.23;;;32.30;49.00;;;;;;5013165;28;20595;-75
2022/05/09 07:57:09;;;;;;;3.00;1.53;;;32.20;48.20;;;;;;5033654;28;20681;-74
2022/05/09 07:59:35;;;;;;;2.83;1.47;;;32.20;47.90;;;;;;5032486;28;20573;-75
2022/05/09 08:02:01;;;;;;;2.63;1.33;;;32.30;46.60;;;;;;5035069;28;20638;-74
2022/05/09 08:04:27;;;;;;;2.90;1.33;;;32.10;45.70;;;;;;5035141;28;20164;-74
2022/05/09 08:06:53;;;;;;;6.10;1.33;;;31.80;45.70;;;;;;5032909;28;20606;-74
2022/05/09 08:09:18;;;;;;;3.57;1.30;;;31.70;45.90;;;;;;5031182;28;20213;-74
2022/05/09 08:11:44;;;;;;;2.80;1.40;;;31.80;46.60;;;;;;5029390;28;20253;-74
2022/05/09 08:14:11;;;;;;;4.60;1.67;;;31.90;46.30;;;;;;5026680;28;20194;-75
2022/05/09 08:16:39;;;;;;;5.37;1.50;;;32.10;46.30;;;;;;5028839;28;20693;-75
2022/05/09 08:19:08;;;;;;;2.90;1.30;;;32.50;46.80;;;;;;5029449;28;20595;-75
2022/05/09 08:21:37;;;;;;;2.13;1.10;;;32.80;47.10;;;;;;5030852;28;20684;-74
2022/05/09 08:24:05;;;;;;;3.27;0.90;;;33.10;46.40;;;;;;5033636;28;20587;-74
2022/05/09 08:26:32;;;;;;;3.93;1.80;;;33.30;45.70;;;;;;5033072;28;20634;-73
2022/05/09 08:28:57;;;;;;;2.50;1.13;;;33.50;45.90;;;;;;5034710;28;20568;-76
2022/05/09 08:31:24;;;;;;;4.00;1.50;;;34.00;46.60;;;;;;5026462;28;21415;-73
2022/05/09 08:33:51;;;;;;;2.40;1.33;;;34.60;45.70;;;;;;5030301;28;20265;-74
2022/05/09 08:39:05;;;;;;;3.40;1.23;;;35.50;45.30;;;;;;5034298;28;21103;-74
2022/05/09 08:41:43;;;;;;;3.77;1.23;;;36.00;45.00;;;;;;5032558;28;20770;-75
2022/05/09 08:44:43;;;;;;;3.17;1.60;;;36.00;42.30;;;;;;5032436;28;21146;-75
2022/05/09 08:47:51;;;;;;;3.30;1.40;;;36.00;42.20;;;;;;5032222;28;21131;-75
2022/05/09 08:50:45;;;;;;;2.90;1.30;;;35.80;41.80;;;;;;5033821;28;20671;-73
2022/05/09 08:53:19;;;;;;;5.10;1.77;;;35.70;42.60;;;;;;5033789;28;20780;-74
2022/05/09 08:55:45;;;;;;;3.80;1.20;;;35.90;42.50;;;;;;5034308;28;20579;-73
2022/05/09 08:58:23;;;;;;;3.17;1.23;;;36.20;42.00;;;;;;5034333;28;20571;-74
2022/05/09 09:00:53;;;;;;;2.60;1.40;;;36.40;41.50;;;;;;5038026;28;20635;-74
2022/05/09 09:03:34;;;;;;;3.13;1.93;;;36.20;39.90;;;;;;5038948;28;20651;-74
2022/05/09 09:06:33;;;;;;;2.93;1.43;;;36.20;39.90;;;;;;5032424;28;22454;-75
2022/05/09 09:09:10;;;;;;;3.23;1.80;;;36.00;40.90;;;;;;5032916;28;20653;-74
2022/05/09 09:12:06;;;;;;;4.37;1.50;;;36.00;40.10;;;;;;5034400;28;20619;-74
2022/05/09 09:14:48;;;;;;;2.50;1.27;;;36.00;40.00;;;;;;5030149;28;20606;-74
2022/05/09 09:17:52;;;;;;;3.93;1.23;;;36.00;40.60;;;;;;5029764;28;20673;-74
2022/05/09 09:20:23;;;;;;;2.10;1.37;;;36.40;40.80;;;;;;4990127;28;20643;-74
2022/05/09 09:22:58;;;;;;;5.17;2.27;;;36.70;40.50;;;;;;5024056;28;20756;-75
2022/05/09 09:25:44;;;;;;;2.80;1.20;;;36.80;39.60;;;;;;5025737;28;20579;-75
2022/05/09 09:28:47;;;;;;;4.37;1.77;;;36.90;40.00;;;;;;5034315;28;20586;-75
2022/05/09 09:31:18;;;;;;;2.43;1.47;;;36.80;38.20;;;;;;5032864;28;20607;-74
2022/05/09 09:33:54;;;;;;;3.70;1.50;;;36.50;38.70;;;;;;5033608;28;20599;-75
2022/05/09 09:36:26;;;;;;;5.30;1.30;;;36.30;38.30;;;;;;5015619;28;20583;-76
2022/05/09 09:39:01;;;;;;;5.63;1.37;;;36.10;38.50;;;;;;5032038;28;20596;-74
2022/05/09 09:41:33;;;;;;;3.30;1.57;;;36.00;39.00;;;;;;5032652;28;20609;-74
2022/05/09 09:44:15;;;;;;;3.13;1.37;;;36.10;39.50;;;;;;5029595;28;20627;-74
2022/05/09 09:47:00;;;;;;;4.57;1.70;;;36.40;39.80;;;;;;5030633;28;20580;-74
2022/05/09 09:49:27;;;;;;;2.80;1.30;;;36.60;39.40;;;;;;5030334;28;20922;-74
2022/05/09 09:51:52;;;;;;;3.10;1.47;;;36.80;39.30;;;;;;5030422;28;20631;-74
2022/05/09 09:54:27;;;;;;;2.50;1.23;;;37.10;39.90;;;;;;5030987;28;20581;-74
2022/05/09 09:56:53;;;;;;;2.77;1.67;;;37.60;39.50;;;;;;5031389;28;20173;-74
2022/05/09 09:59:31;;;;;;;4.13;1.63;;;37.90;38.80;;;;;;5031335;28;20588;-73
2022/05/09 10:02:16;;;;;;;3.63;1.47;;;38.00;38.10;;;;;;5028768;28;20636;-73
2022/05/09 10:04:44;;;;;;;3.07;2.10;;;38.10;38.10;;;;;;5030725;28;20942;-74
2022/05/09 10:07:14;;;;;;;2.57;1.40;;;38.30;37.80;;;;;;5031900;28;20695;-74
2022/05/09 10:09:59;;;;;;;2.97;1.70;;;38.30;37.70;;;;;;5031897;28;20703;-72
2022/05/09 10:12:31;;;;;;;6.37;1.97;;;38.50;38.10;;;;;;5011270;28;20929;-74
2022/05/09 10:14:57;;;;;;;2.80;1.57;;;38.70;38.10;;;;;;5029494;28;20666;-74
2022/05/09 10:17:25;;;;;;;2.93;1.80;;;38.90;37.60;;;;;;5032269;28;20680;-73
2022/05/09 10:19:55;;;;;;;2.70;1.90;;;38.80;37.30;;;;;;5031388;28;20669;-74
2022/05/09 10:25:20;;;;;;;3.10;1.60;;;38.80;36.00;;;;;;5032008;28;20601;-74
2022/05/09 10:27:59;;;;;;;2.90;1.70;;;38.40;36.70;;;;;;5032034;28;20572;-75
2022/05/09 10:30:35;;;;;;;2.33;1.33;;;38.30;36.30;;;;;;5028316;28;20632;-74
2022/05/09 10:33:01;;;;;;;3.50;1.60;;;38.10;37.10;;;;;;5032211;28;21036;-74
2022/05/09 10:35:39;;;;;;;2.77;1.70;;;38.10;36.80;;;;;;5031162;28;20592;-75
2022/05/09 10:38:16;;;;;;;1.90;1.43;;;37.90;36.70;;;;;;5031948;28;20153;-74
2022/05/09 10:40:54;;;;;;;1.90;1.27;;;37.80;36.20;;;;;;5030740;28;20621;-74
2022/05/09 10:43:29;;;;;;;2.70;1.93;;;37.70;36.40;;;;;;5031510;28;20610;-75
2022/05/09 10:45:56;;;;;;;2.63;1.57;;;37.60;36.20;;;;;;5032304;28;20586;-74
2022/05/09 10:48:21;;;;;;;2.73;1.60;;;37.10;36.80;;;;;;5031930;28;21120;-75
2022/05/09 10:51:16;;;;;;;4.23;2.40;;;37.10;36.80;;;;;;5031790;28;20666;-75
2022/05/09 10:53:57;;;;;;;3.10;2.00;;;36.90;36.50;;;;;;5031829;28;20205;-75
2022/05/09 10:56:35;;;;;;;2.37;1.57;;;36.70;36.60;;;;;;5031873;28;20901;-75
2022/05/09 10:59:04;;;;;;;2.40;2.20;;;36.30;36.70;;;;;;5030550;28;20591;-75
2022/05/09 11:01:56;;;;;;;2.23;2.03;;;36.00;36.90;;;;;;5031311;28;20608;-76
2022/05/09 11:04:24;;;;;;;4.60;2.10;;;35.90;37.20;;;;;;5031163;28;20573;-75
2022/05/09 11:07:02;;;;;;;2.67;2.00;;;35.70;37.60;;;;;;5031115;28;20700;-75
2022/05/09 11:09:32;;;;;;;2.10;1.67;;;35.70;37.40;;;;;;5015097;28;20594;-75
2022/05/09 11:12:23;;;;;;;2.10;1.67;;;35.70;37.60;;;;;;5029902;28;20686;-75
2022/05/09 11:15:14;;;;;;;3.47;1.93;;;35.70;37.70;;;;;;5030813;28;20607;-75
2022/05/09 11:17:56;;;;;;;2.23;1.57;;;35.40;36.80;;;;;;5030355;28;20600;-74
2022/05/09 11:20:38;;;;;;;2.13;1.87;;;35.00;38.30;;;;;;5031203;28;20579;-75
2022/05/09 11:23:15;;;;;;;3.23;2.13;;;34.80;37.40;;;;;;5029864;28;20607;-75
2022/05/09 11:26:10;;;;;;;3.23;1.80;;;34.90;37.70;;;;;;5031137;28;20571;-74
2022/05/09 11:28:45;;;;;;;3.23;1.60;;;34.40;37.90;;;;;;5031564;28;20640;-76
2022/05/09 11:31:32;;;;;;;14.77;3.00;;;34.10;37.60;;;;;;5030356;28;20976;-75
2022/05/09 11:34:14;;;;;;;2.73;1.70;;;34.10;38.70;;;;;;5030951;28;20607;-76
2022/05/09 11:37:04;;;;;;;2.83;1.60;;;34.20;38.80;;;;;;5031484;28;20570;-75
2022/05/09 11:39:45;;;;;;;2.53;1.87;;;34.40;38.60;;;;;;5030867;28;20578;-75
2022/05/09 11:45:17;;;;;;;5.47;2.10;;;34.00;38.00;;;;;;5030908;28;20721;-75
2022/05/09 11:48:13;;;;;;;3.47;1.87;;;33.80;38.80;;;;;;5031386;28;21005;-75
2022/05/09 11:50:45;;;;;;;2.57;1.90;;;33.70;39.10;;;;;;5030631;28;20619;-75
2022/05/09 11:53:14;;;;;;;2.70;1.70;;;33.60;37.90;;;;;;5030762;28;20602;-74
2022/05/09 11:55:41;;;;;;;3.30;1.87;;;33.50;37.90;;;;;;5030612;28;20591;-75
2022/05/09 11:58:07;;;;;;;2.10;1.33;;;33.40;37.60;;;;;;5030968;28;20677;-75
2022/05/09 12:00:33;;;;;;;11.70;2.20;;;33.20;38.20;;;;;;5028988;28;20935;-75
2022/05/09 12:03:09;;;;;;;2.80;1.87;;;32.90;37.80;;;;;;5029082;28;21091;-75
2022/05/09 12:05:35;;;;;;;3.03;1.70;;;32.70;38.00;;;;;;5029158;28;21084;-77
2022/05/09 12:08:41;;;;;;;2.77;1.80;;;32.70;38.40;;;;;;5030862;28;20942;-75
2022/05/09 12:11:30;;;;;;;3.93;1.70;;;32.90;38.40;;;;;;5027354;28;20630;-74
2022/05/09 12:13:58;;;;;;;2.20;1.43;;;32.90;39.00;;;;;;5029137;28;20577;-75
2022/05/09 12:16:36;;;;;;;2.20;1.40;;;33.10;38.70;;;;;;5029257;28;21067;-75
2022/05/09 12:19:13;;;;;;;3.30;1.27;;;33.00;38.80;;;;;;5030935;28;20631;-75
2022/05/09 12:21:41;;;;;;;2.97;1.60;;;33.00;38.30;;;;;;5030141;28;20920;-74
2022/05/09 12:24:18;;;;;;;2.00;1.70;;;33.10;38.70;;;;;;5030371;28;20577;-74
2022/05/09 12:26:47;;;;;;;2.10;1.40;;;32.90;38.20;;;;;;5030592;28;20573;-75
2022/05/09 12:29:16;;;;;;;2.13;1.70;;;32.80;38.50;;;;;;5030579;28;20911;-74
2022/05/09 12:31:49;;;;;;;2.10;1.43;;;32.90;39.00;;;;;;5028765;28;20973;-74
2022/05/09 12:34:27;;;;;;;2.00;1.30;;;32.90;39.20;;;;;;5029365;28;20571;-72
2022/05/09 12:36:53;;;;;;;2.57;1.40;;;32.90;38.80;;;;;;5030492;28;20574;-74
2022/05/09 12:39:36;;;;;;;5.10;2.57;;;32.80;38.60;;;;;;5030530;28;20633;-74
2022/05/09 12:42:12;;;;;;;4.20;1.80;;;32.60;38.20;;;;;;5031038;28;20601;-74
2022/05/09 12:44:38;;;;;;;2.60;1.63;;;32.20;37.90;;;;;;5030891;28;20590;-74
2022/05/09 12:47:09;;;;;;;3.40;1.53;;;31.70;37.60;;;;;;5033848;28;20584;-75
2022/05/09 12:49:45;;;;;;;2.53;1.60;;;31.30;37.90;;;;;;5014151;28;20202;-73
2022/05/09 12:52:12;;;;;;;4.27;2.33;;;30.90;38.30;;;;;;5014027;28;20775;-74
2022/05/09 12:55:51;;;;;;;2.43;1.43;;;30.60;38.60;;;;;;5018425;28;20581;-74
2022/05/09 12:57:33;;;;;;;2.37;1.50;;;30.30;38.80;;;;;;5033840;28;20584;-74
2022/05/09 13:00:15;;;;;;;2.87;1.60;;;29.90;39.30;;;;;;5033232;28;20626;-75
2022/05/09 13:02:42;;;;;;;2.80;1.50;;;29.60;39.30;;;;;;5029561;28;20716;-75
2022/05/09 13:05:13;;;;;;;2.90;1.50;;;29.40;39.50;;;;;;5031813;28;20603;-75
2022/05/09 13:08:01;;;;;;;2.60;1.67;;;29.30;39.80;;;;;;5029019;28;20941;-75
2022/05/09 13:10:29;;;;;;;2.70;1.93;;;29.00;40.90;;;;;;5007227;28;20693;-75
2022/05/09 13:13:06;;;;;;;2.70;1.77;;;28.90;40.30;;;;;;5031733;28;20611;-75
2022/05/09 13:15:33;;;;;;;4.10;1.70;;;28.80;40.70;;;;;;5032434;28;20636;-74
2022/05/09 13:18:05;;;;;;;6.67;2.03;;;28.80;40.80;;;;;;5033230;28;20576;-75
2022/05/09 13:20:38;;;;;;;3.10;1.53;;;28.70;40.60;;;;;;5032200;28;20569;-73
2022/05/09 13:23:07;;;;;;;2.63;1.77;;;28.60;40.80;;;;;;5032701;28;20593;-74
2022/05/09 13:25:49;;;;;;;2.13;1.43;;;28.60;40.90;;;;;;5033447;28;20576;-75